createdAt,value
2018-06-29T00:00:13.635Z,4.87
2018-06-29T00:02:42.262Z,4.43
2018-06-29T00:05:10.501Z,4.47
2018-06-29T00:07:38.727Z,4.63
2018-06-29T00:10:08.354Z,4.80
2018-06-29T00:12:37.260Z,4.63
2018-06-29T00:15:05.523Z,4.60
2018-06-29T00:17:33.910Z,4.70
2018-06-29T00:20:02.538Z,5.20
2018-06-29T00:22:30.766Z,5.00
2018-06-29T00:24:59.697Z,5.50
2018-06-29T00:27:28.146Z,5.17
2018-06-29T00:29:56.255Z,5.10
2018-06-29T00:32:24.446Z,5.30
2018-06-29T00:34:52.698Z,5.40
2018-06-29T00:37:21.544Z,5.07
2018-06-29T00:39:49.863Z,5.10
2018-06-29T00:42:18.084Z,4.80
2018-06-29T00:44:46.346Z,4.93
2018-06-29T00:47:15.306Z,5.00
2018-06-29T00:49:43.760Z,5.23
2018-06-29T00:52:12.053Z,5.07
2018-06-29T00:54:40.459Z,5.10
2018-06-29T00:57:08.715Z,5.03
2018-06-29T00:59:37.294Z,4.70
2018-06-29T01:02:06.845Z,5.20
2018-06-29T01:04:35.503Z,5.27
2018-06-29T01:07:03.934Z,5.13
2018-06-29T01:09:32.168Z,5.53
2018-06-29T01:12:00.522Z,5.63
2018-06-29T01:14:29.159Z,5.00
2018-06-29T01:16:58.090Z,5.00
2018-06-29T01:19:26.352Z,5.23
2018-06-29T01:21:54.561Z,5.60
2018-06-29T01:24:22.803Z,5.20
2018-06-29T01:26:51.805Z,5.00
2018-06-29T01:29:20.103Z,5.17
2018-06-29T01:31:48.282Z,5.70
2018-06-29T01:34:16.508Z,5.30
2018-06-29T01:36:45.633Z,5.10
2018-06-29T01:39:14.790Z,5.50
2018-06-29T01:41:43.191Z,5.10
2018-06-29T01:44:11.392Z,5.13
2018-06-29T01:46:40.470Z,4.90
2018-06-29T01:49:08.688Z,4.83
2018-06-29T01:51:37.496Z,4.60
2018-06-29T01:54:05.815Z,4.67
2018-06-29T01:56:34.038Z,5.07
2018-06-29T01:59:02.552Z,5.00
2018-06-29T02:01:30.786Z,4.77
2018-06-29T02:03:59.659Z,5.67
2018-06-29T02:06:28.826Z,5.00
2018-06-29T02:08:57.917Z,4.93
2018-06-29T02:11:26.139Z,5.00
2018-06-29T02:13:54.375Z,4.63
2018-06-29T02:16:22.759Z,5.03
2018-06-29T02:18:50.991Z,5.03
2018-06-29T02:21:19.210Z,5.50
2018-06-29T02:23:47.396Z,4.80
2018-06-29T02:26:15.737Z,5.07
2018-06-29T02:28:44.032Z,4.50
2018-06-29T02:31:12.699Z,5.03
2018-06-29T02:33:40.894Z,4.83
2018-06-29T02:36:09.100Z,5.00
2018-06-29T02:38:38.325Z,4.87
2018-06-29T02:41:06.752Z,5.47
2018-06-29T02:43:35.611Z,5.53
2018-06-29T02:46:03.860Z,6.13
2018-06-29T02:48:32.080Z,6.33
2018-06-29T02:51:00.383Z,7.10
2018-06-29T02:53:28.608Z,7.03
2018-06-29T02:55:56.831Z,7.60
2018-06-29T02:58:25.062Z,6.83
2018-06-29T03:00:53.268Z,7.50
2018-06-29T03:03:21.860Z,7.70
2018-06-29T03:05:50.767Z,5.90
2018-06-29T03:08:19.016Z,5.70
2018-06-29T03:10:47.269Z,6.27
2018-06-29T03:13:15.449Z,6.17
2018-06-29T03:15:44.714Z,6.60
2018-06-29T03:18:14.108Z,6.07
2018-06-29T03:20:43.517Z,6.50
2018-06-29T03:23:11.709Z,6.20
2018-06-29T03:25:39.962Z,6.00
2018-06-29T03:28:08.176Z,5.90
2018-06-29T03:30:36.471Z,7.03
2018-06-29T03:33:04.817Z,6.77
2018-06-29T03:35:33.002Z,6.07
2018-06-29T03:38:01.234Z,6.47
2018-06-29T03:40:29.578Z,6.83
2018-06-29T03:42:57.798Z,6.90
2018-06-29T03:45:25.991Z,6.93
2018-06-29T03:47:54.239Z,6.70
2018-06-29T03:50:22.554Z,6.87
2018-06-29T03:52:50.874Z,6.97
2018-06-29T03:55:19.092Z,6.93
2018-06-29T03:57:47.308Z,7.83
2018-06-29T04:00:15.517Z,7.90
2018-06-29T04:02:43.763Z,7.43
2018-06-29T04:05:12.131Z,7.50
2018-06-29T04:07:40.486Z,7.53
2018-06-29T04:10:08.698Z,7.73
2018-06-29T04:12:37.058Z,7.23
2018-06-29T04:15:06.134Z,7.47
2018-06-29T04:17:34.368Z,7.53
2018-06-29T04:20:02.583Z,7.40
2018-06-29T04:22:30.794Z,7.83
2018-06-29T04:25:01.826Z,7.67
2018-06-29T04:27:31.343Z,7.63
2018-06-29T04:29:59.737Z,7.73
2018-06-29T04:32:28.104Z,8.27
2018-06-29T04:34:56.362Z,7.67
2018-06-29T04:37:24.576Z,8.17
2018-06-29T04:39:53.774Z,8.43
2018-06-29T04:42:22.862Z,7.67
2018-06-29T04:44:51.158Z,8.77
2018-06-29T04:47:19.420Z,7.40
2018-06-29T04:49:50.116Z,8.03
2018-06-29T04:52:18.438Z,7.50
2018-06-29T04:54:46.675Z,7.90
2018-06-29T04:57:15.936Z,7.47
2018-06-29T04:59:44.737Z,7.37
2018-06-29T05:02:13.668Z,8.27
2018-06-29T05:04:41.999Z,7.70
2018-06-29T05:07:10.203Z,8.03
2018-06-29T05:09:38.874Z,7.80
2018-06-29T05:12:07.771Z,7.13
2018-06-29T05:14:36.011Z,7.03
2018-06-29T05:17:04.250Z,7.27
2018-06-29T05:19:32.563Z,7.57
2018-06-29T05:22:00.782Z,6.73
2018-06-29T05:24:29.135Z,7.80
2018-06-29T05:26:57.413Z,7.67
2018-06-29T05:29:25.623Z,7.80
2018-06-29T05:31:53.889Z,8.40
2018-06-29T05:34:22.831Z,8.07
2018-06-29T05:36:51.180Z,7.53
2018-06-29T05:39:19.519Z,10.13
2018-06-29T05:41:47.962Z,8.20
2018-06-29T05:44:16.047Z,7.43
2018-06-29T05:46:44.373Z,7.20
2018-06-29T05:49:12.663Z,7.97
2018-06-29T05:51:40.871Z,7.90
2018-06-29T05:54:09.103Z,7.53
2018-06-29T05:56:37.388Z,7.30
2018-06-29T05:59:05.655Z,8.17
2018-06-29T06:01:33.903Z,7.53
2018-06-29T06:04:02.150Z,8.23
2018-06-29T06:06:30.437Z,8.27
2018-06-29T06:08:58.766Z,7.33
2018-06-29T06:11:27.012Z,7.43
2018-06-29T06:13:55.258Z,7.03
2018-06-29T06:16:23.527Z,7.40
2018-06-29T06:19:00.746Z,6.57
2018-06-29T06:21:29.115Z,6.40
2018-06-29T06:23:57.435Z,6.60
2018-06-29T06:26:25.659Z,6.73
2018-06-29T06:28:53.965Z,6.23
2018-06-29T06:31:22.347Z,6.60
2018-06-29T06:33:50.776Z,6.50
2018-06-29T06:36:19.095Z,6.67
2018-06-29T06:38:47.335Z,6.57
2018-06-29T06:41:15.577Z,6.30
2018-06-29T06:43:44.546Z,6.63
2018-06-29T06:46:12.881Z,5.80
2018-06-29T06:48:41.119Z,6.10
2018-06-29T06:51:09.364Z,6.10
2018-06-29T06:53:37.807Z,6.30
2018-06-29T06:56:06.198Z,5.97
2018-06-29T06:58:34.892Z,6.50
2018-06-29T07:01:03.518Z,5.83
2018-06-29T07:03:31.785Z,6.33
2018-06-29T07:06:00.480Z,5.97
2018-06-29T07:08:29.347Z,6.23
2018-06-29T07:10:57.819Z,5.27
2018-06-29T07:13:26.210Z,5.70
2018-06-29T07:15:54.434Z,5.60
2018-06-29T07:18:22.745Z,4.90
2018-06-29T07:20:50.894Z,4.97
2018-06-29T07:23:19.087Z,5.20
2018-06-29T07:25:47.604Z,5.10
2018-06-29T07:28:15.792Z,4.33
2018-06-29T07:30:45.138Z,5.20
2018-06-29T07:33:13.723Z,4.90
2018-06-29T07:35:41.934Z,5.00
2018-06-29T07:38:10.147Z,4.60
2018-06-29T07:40:38.143Z,4.90
2018-06-29T07:43:06.350Z,3.97
2018-06-29T07:45:34.583Z,4.97
2018-06-29T07:48:02.857Z,4.63
2018-06-29T07:50:31.108Z,4.60
2018-06-29T07:52:59.388Z,4.53
2018-06-29T07:55:27.620Z,4.17
2018-06-29T07:57:55.846Z,4.97
2018-06-29T08:00:24.075Z,4.53
2018-06-29T08:02:52.372Z,3.87
2018-06-29T08:05:21.082Z,4.80
2018-06-29T08:07:49.304Z,4.10
2018-06-29T08:10:17.579Z,4.00
2018-06-29T08:12:45.821Z,5.00
2018-06-29T08:15:14.207Z,3.90
2018-06-29T08:17:42.421Z,3.93
2018-06-29T08:20:10.659Z,4.10
2018-06-29T08:22:38.685Z,3.97
2018-06-29T08:25:11.431Z,3.83
2018-06-29T08:27:41.756Z,4.00
2018-06-29T08:30:10.898Z,4.57
2018-06-29T08:32:39.331Z,3.60
2018-06-29T08:35:09.553Z,3.80
2018-06-29T08:37:40.307Z,4.00
2018-06-29T08:40:09.800Z,4.00
2018-06-29T08:42:38.167Z,3.93
2018-06-29T08:45:07.507Z,3.57
2018-06-29T08:47:35.639Z,3.67
2018-06-29T08:50:03.936Z,4.30
2018-06-29T08:52:32.147Z,3.67
2018-06-29T08:55:00.426Z,3.53
2018-06-29T08:57:29.647Z,3.70
2018-06-29T08:59:58.446Z,3.50
2018-06-29T09:02:26.666Z,3.57
2018-06-29T09:04:54.911Z,4.00
2018-06-29T09:07:23.256Z,3.50
2018-06-29T09:09:51.726Z,3.30
2018-06-29T09:12:20.165Z,3.20
2018-06-29T09:14:48.426Z,2.97
2018-06-29T09:17:16.712Z,3.17
2018-06-29T09:19:45.056Z,2.50
2018-06-29T09:22:13.609Z,3.00
2018-06-29T09:24:41.819Z,2.87
2018-06-29T09:27:10.052Z,2.80
2018-06-29T09:29:38.250Z,2.73
2018-06-29T09:32:07.504Z,3.00
2018-06-29T09:34:36.591Z,2.70
2018-06-29T09:37:04.865Z,3.03
2018-06-29T09:39:33.095Z,3.00
2018-06-29T09:42:01.301Z,2.57
2018-06-29T09:44:30.056Z,2.53
2018-06-29T09:46:58.728Z,2.73
2018-06-29T09:49:26.939Z,2.90
2018-06-29T09:51:55.374Z,2.83
2018-06-29T09:54:23.626Z,3.33
2018-06-29T09:56:51.904Z,2.57
2018-06-29T09:59:20.189Z,2.63
2018-06-29T10:01:48.427Z,3.33
2018-06-29T10:04:17.023Z,3.03
2018-06-29T10:06:45.464Z,2.90
2018-06-29T10:09:13.710Z,3.20
2018-06-29T10:11:41.928Z,2.77
2018-06-29T10:14:10.241Z,2.90
2018-06-29T10:16:38.368Z,2.87
2018-06-29T10:19:06.668Z,2.30
2018-06-29T10:21:34.900Z,2.70
2018-06-29T10:24:03.107Z,2.43
2018-06-29T10:26:31.291Z,2.47
2018-06-29T10:28:59.511Z,2.57
2018-06-29T10:31:27.698Z,2.60
2018-06-29T10:33:55.937Z,2.80
2018-06-29T10:36:24.204Z,2.30
2018-06-29T10:38:53.111Z,2.73
2018-06-29T10:41:21.461Z,2.50
2018-06-29T10:43:49.627Z,2.17
2018-06-29T10:46:17.887Z,2.50
2018-06-29T10:48:46.134Z,2.90
2018-06-29T10:51:14.566Z,2.10
2018-06-29T10:53:42.840Z,2.00
2018-06-29T10:56:11.110Z,2.73
2018-06-29T10:58:39.442Z,2.43
2018-06-29T11:01:08.755Z,2.37
2018-06-29T11:03:37.788Z,2.53
2018-06-29T11:06:06.079Z,2.40
2018-06-29T11:08:34.300Z,2.40
2018-06-29T11:11:02.690Z,2.57
2018-06-29T11:13:30.916Z,2.33
2018-06-29T11:15:59.436Z,2.47
2018-06-29T11:18:27.746Z,2.30
2018-06-29T11:20:56.103Z,2.67
2018-06-29T11:23:24.315Z,2.63
2018-06-29T11:25:53.373Z,2.40
2018-06-29T11:28:22.742Z,2.27
2018-06-29T11:30:51.359Z,2.47
2018-06-29T11:33:19.595Z,2.53
2018-06-29T11:35:47.841Z,2.30
2018-06-29T11:38:16.097Z,2.40
2018-06-29T11:40:44.436Z,2.50
2018-06-29T11:43:13.063Z,2.23
2018-06-29T11:45:41.324Z,2.70
2018-06-29T11:48:09.554Z,2.33
2018-06-29T11:50:38.083Z,2.60
2018-06-29T11:53:06.467Z,2.37
2018-06-29T11:55:34.786Z,2.60
2018-06-29T11:58:03.030Z,2.30
2018-06-29T12:00:31.326Z,2.50
2018-06-29T12:02:59.679Z,2.17
2018-06-29T12:05:27.970Z,2.40
2018-06-29T12:07:56.198Z,2.50
2018-06-29T12:10:24.447Z,2.30
2018-06-29T12:12:53.286Z,2.30
2018-06-29T12:15:21.568Z,2.87
2018-06-29T12:17:51.230Z,2.73
2018-06-29T12:20:19.519Z,2.27
2018-06-29T12:22:47.843Z,2.70
2018-06-29T12:25:16.072Z,2.80
2018-06-29T12:27:44.482Z,2.50
2018-06-29T12:30:12.802Z,2.63
2018-06-29T12:32:41.040Z,2.57
2018-06-29T12:35:09.306Z,2.80
2018-06-29T12:37:37.686Z,3.00
2018-06-29T12:40:06.804Z,3.17
2018-06-29T12:42:35.083Z,2.90
2018-06-29T12:45:03.386Z,3.07
2018-06-29T12:47:31.635Z,2.80
2018-06-29T12:50:00.088Z,2.80
2018-06-29T12:52:28.559Z,2.70
2018-06-29T12:54:56.760Z,2.60
2018-06-29T12:57:25.286Z,2.43
2018-06-29T12:59:53.487Z,2.40
2018-06-29T13:02:21.652Z,2.90
2018-06-29T13:04:49.921Z,3.13
2018-06-29T13:07:18.090Z,2.30
2018-06-29T13:09:46.931Z,2.63
2018-06-29T13:12:15.672Z,2.30
2018-06-29T13:14:43.919Z,2.50
2018-06-29T13:17:12.130Z,2.67
2018-06-29T13:19:40.385Z,2.90
2018-06-29T13:22:08.611Z,2.40
2018-06-29T13:24:36.948Z,2.70
2018-06-29T13:27:05.317Z,2.43
2018-06-29T13:29:33.523Z,2.63
2018-06-29T13:32:01.718Z,2.70
2018-06-29T13:34:30.505Z,2.90
2018-06-29T13:36:58.775Z,2.93
2018-06-29T13:39:27.181Z,3.07
2018-06-29T13:41:55.643Z,2.80
2018-06-29T13:44:23.929Z,2.43
2018-06-29T13:46:52.010Z,2.83
2018-06-29T13:49:20.655Z,3.07
2018-06-29T13:51:48.890Z,2.73
2018-06-29T13:54:17.200Z,2.70
2018-06-29T13:56:45.996Z,3.20
2018-06-29T13:59:14.414Z,2.70
2018-06-29T14:01:42.973Z,2.80
2018-06-29T14:04:11.168Z,2.37
2018-06-29T14:06:42.813Z,2.70
2018-06-29T14:09:11.010Z,2.80
2018-06-29T14:11:39.295Z,2.77
2018-06-29T14:14:07.611Z,2.57
2018-06-29T14:16:36.020Z,2.40
2018-06-29T14:19:04.366Z,3.27
2018-06-29T14:21:32.612Z,2.50
2018-06-29T14:24:00.809Z,2.20
2018-06-29T14:26:29.145Z,2.57
2018-06-29T14:28:58.829Z,2.50
2018-06-29T14:31:27.081Z,2.63
2018-06-29T14:33:55.298Z,2.30
2018-06-29T14:36:23.515Z,2.33
2018-06-29T14:38:52.604Z,2.30
2018-06-29T14:41:21.103Z,2.30
2018-06-29T14:43:49.321Z,2.37
2018-06-29T14:46:17.543Z,2.03
2018-06-29T14:48:45.798Z,2.60
2018-06-29T14:51:14.603Z,2.13
2018-06-29T14:53:43.540Z,2.20
2018-06-29T14:56:11.993Z,2.20
2018-06-29T14:58:40.232Z,2.30
2018-06-29T15:01:08.444Z,2.37
2018-06-29T15:03:37.480Z,2.27
2018-06-29T15:06:05.748Z,2.13
2018-06-29T15:08:33.981Z,2.33
2018-06-29T15:11:02.266Z,2.30
2018-06-29T15:13:31.401Z,2.60
2018-06-29T15:15:59.841Z,2.30
2018-06-29T15:18:28.032Z,1.97
2018-06-29T15:20:56.270Z,2.50
2018-06-29T15:23:24.474Z,2.40
2018-06-29T15:25:52.712Z,2.30
2018-06-29T15:28:21.840Z,2.37
2018-06-29T15:30:50.051Z,2.60
2018-06-29T15:33:18.308Z,2.67
2018-06-29T15:35:46.563Z,2.20
2018-06-29T15:38:14.810Z,2.20
2018-06-29T15:40:43.030Z,2.50
2018-06-29T15:43:12.194Z,2.37
2018-06-29T15:45:40.867Z,2.20
2018-06-29T15:48:09.277Z,2.50
2018-06-29T15:50:38.379Z,2.27
2018-06-29T15:53:07.087Z,2.50
2018-06-29T15:55:35.659Z,2.40
2018-06-29T15:58:03.902Z,2.40
2018-06-29T16:00:32.175Z,2.20
2018-06-29T16:03:01.322Z,2.17
2018-06-29T16:05:29.751Z,2.37
2018-06-29T16:07:57.972Z,2.70
2018-06-29T16:10:26.166Z,2.57
2018-06-29T16:12:55.284Z,2.00
2018-06-29T16:15:23.503Z,2.27
2018-06-29T16:17:52.723Z,2.20
2018-06-29T16:20:21.613Z,2.20
2018-06-29T16:22:50.552Z,2.60
2018-06-29T16:25:18.723Z,2.00
2018-06-29T16:27:46.948Z,2.33
2018-06-29T16:30:15.774Z,2.63
2018-06-29T16:32:44.515Z,2.57
2018-06-29T16:35:12.747Z,2.37
2018-06-29T16:37:40.964Z,2.53
2018-06-29T16:40:09.215Z,2.63
2018-06-29T16:42:37.368Z,2.33
2018-06-29T16:45:05.620Z,2.33
2018-06-29T16:47:33.856Z,2.10
2018-06-29T16:50:02.072Z,2.40
2018-06-29T16:52:30.427Z,2.30
2018-06-29T16:54:58.991Z,2.20
2018-06-29T16:57:27.278Z,2.50
2018-06-29T16:59:55.573Z,2.27
2018-06-29T17:02:23.830Z,2.33
2018-06-29T17:04:52.107Z,2.30
2018-06-29T17:07:20.316Z,2.10
2018-06-29T17:09:48.556Z,2.30
2018-06-29T17:12:16.802Z,2.27
2018-06-29T17:14:45.515Z,2.27
2018-06-29T17:17:14.749Z,2.40
2018-06-29T17:19:42.993Z,2.37
2018-06-29T17:22:11.281Z,2.20
2018-06-29T17:24:39.559Z,2.50
2018-06-29T17:27:07.969Z,2.10
2018-06-29T17:29:36.818Z,1.97
2018-06-29T17:32:05.095Z,2.00
2018-06-29T17:34:33.357Z,2.40
2018-06-29T17:37:01.619Z,2.17
2018-06-29T17:39:30.541Z,2.00
2018-06-29T17:41:59.192Z,2.23
2018-06-29T17:44:27.401Z,2.23
2018-06-29T17:46:55.597Z,2.20
2018-06-29T17:49:23.894Z,2.20
2018-06-29T17:51:52.666Z,2.40
2018-06-29T17:54:20.927Z,2.27
2018-06-29T17:56:49.135Z,2.10
2018-06-29T17:59:17.424Z,2.10
2018-06-29T18:01:46.246Z,2.20
2018-06-29T18:04:14.558Z,2.20
2018-06-29T18:06:42.815Z,2.30
2018-06-29T18:09:11.826Z,2.13
2018-06-29T18:11:40.095Z,2.10
2018-06-29T18:14:08.606Z,6.87
2018-06-29T18:16:36.847Z,3.90
2018-06-29T18:19:05.309Z,2.40
2018-06-29T18:21:33.603Z,7.30
2018-06-29T18:24:01.779Z,3.77
2018-06-29T18:26:30.763Z,4.40
2018-06-29T18:28:58.990Z,2.40
2018-06-29T18:31:27.245Z,2.40
2018-06-29T18:33:55.547Z,2.47
2018-06-29T18:36:23.797Z,3.27
2018-06-29T18:38:52.992Z,2.40
2018-06-29T18:41:21.267Z,11.67
2018-06-29T18:43:49.936Z,5.70
2018-06-29T18:46:18.168Z,3.07
2018-06-29T18:48:46.387Z,2.37
2018-06-29T18:51:15.992Z,2.10
2018-06-29T18:53:44.403Z,2.27
2018-06-29T18:56:12.646Z,2.50
2018-06-29T18:58:41.338Z,2.23
2018-06-29T19:01:09.650Z,2.27
2018-06-29T19:03:37.898Z,2.37
2018-06-29T19:06:06.472Z,2.40
2018-06-29T19:08:34.763Z,2.40
2018-06-29T19:11:03.223Z,2.43
2018-06-29T19:13:31.703Z,2.30
2018-06-29T19:16:00.146Z,2.13
2018-06-29T19:18:28.755Z,2.47
2018-06-29T19:20:56.959Z,2.10
2018-06-29T19:23:25.189Z,1.97
2018-06-29T19:25:53.236Z,2.20
2018-06-29T19:28:22.129Z,2.20
2018-06-29T19:30:51.650Z,2.60
2018-06-29T19:33:19.852Z,2.40
2018-06-29T19:35:48.040Z,2.30
2018-06-29T19:38:16.340Z,2.33
2018-06-29T19:40:44.663Z,2.40
2018-06-29T19:43:12.923Z,2.27
2018-06-29T19:45:41.164Z,2.37
2018-06-29T19:48:09.387Z,4.93
2018-06-29T19:50:37.647Z,2.70
2018-06-29T19:53:06.663Z,2.20
2018-06-29T19:55:34.886Z,2.60
2018-06-29T19:58:03.112Z,2.30
2018-06-29T20:00:31.327Z,2.40
2018-06-29T20:03:00.009Z,2.20
2018-06-29T20:05:29.092Z,3.73
2018-06-29T20:07:57.287Z,3.03
2018-06-29T20:10:25.528Z,2.87
2018-06-29T20:12:53.752Z,2.57
2018-06-29T20:15:21.870Z,2.80
2018-06-29T20:17:50.090Z,2.40
2018-06-29T20:20:18.349Z,2.20
2018-06-29T20:22:46.561Z,1.80
2018-06-29T20:25:15.344Z,2.13
2018-06-29T20:27:43.912Z,2.50
2018-06-29T20:30:12.104Z,2.53
2018-06-29T20:32:40.334Z,2.67
2018-06-29T20:35:08.556Z,2.83
2018-06-29T20:37:37.268Z,2.87
2018-06-29T20:40:05.942Z,2.77
2018-06-29T20:42:34.171Z,3.20
2018-06-29T20:45:02.392Z,3.30
2018-06-29T20:47:30.715Z,3.43
2018-06-29T20:49:59.180Z,3.50
2018-06-29T20:52:27.411Z,3.77
2018-06-29T20:54:55.651Z,3.37
2018-06-29T20:57:23.884Z,3.27
2018-06-29T20:59:52.246Z,3.20
2018-06-29T21:02:20.514Z,3.00
2018-06-29T21:04:48.748Z,3.20
2018-06-29T21:07:16.968Z,7.93
2018-06-29T21:09:46.165Z,7.00
2018-06-29T21:12:14.945Z,3.70
2018-06-29T21:14:43.360Z,3.60
2018-06-29T21:17:11.583Z,3.20
2018-06-29T21:19:39.870Z,2.97
2018-06-29T21:22:08.855Z,3.40
2018-06-29T21:24:37.115Z,3.40
2018-06-29T21:27:05.905Z,3.37
2018-06-29T21:29:34.208Z,3.37
2018-06-29T21:32:02.434Z,3.17
2018-06-29T21:34:31.287Z,3.13
2018-06-29T21:36:59.648Z,3.30
2018-06-29T21:39:27.896Z,2.93
2018-06-29T21:41:56.141Z,3.37
2018-06-29T21:44:24.438Z,3.00
2018-06-29T21:46:53.314Z,3.43
2018-06-29T21:49:21.804Z,4.30
2018-06-29T21:51:50.261Z,3.43
2018-06-29T21:54:18.555Z,4.33
2018-06-29T21:56:46.746Z,3.37
2018-06-29T21:59:15.658Z,3.77
2018-06-29T22:01:44.092Z,3.60
2018-06-29T22:04:12.521Z,3.03
2018-06-29T22:06:40.809Z,3.20
2018-06-29T22:09:10.084Z,3.30
2018-06-29T22:11:38.514Z,3.70
2018-06-29T22:14:07.427Z,3.70
2018-06-29T22:16:35.794Z,3.60
2018-06-29T22:19:04.095Z,3.40
2018-06-29T22:21:32.364Z,3.70
2018-06-29T22:24:00.944Z,3.60
2018-06-29T22:26:29.206Z,3.70
2018-06-29T22:28:57.451Z,3.60
2018-06-29T22:31:25.694Z,3.53
2018-06-29T22:33:53.911Z,3.80
2018-06-29T22:36:22.323Z,3.60
2018-06-29T22:38:50.926Z,3.47
2018-06-29T22:41:19.094Z,4.30
2018-06-29T22:43:47.325Z,4.40
2018-06-29T22:46:15.626Z,3.83
2018-06-29T22:48:44.743Z,4.07
2018-06-29T22:51:13.818Z,3.73
2018-06-29T22:53:42.048Z,3.60
2018-06-29T22:56:10.258Z,3.70
2018-06-29T22:58:38.510Z,3.87
2018-06-29T23:01:07.462Z,3.97
2018-06-29T23:03:40.851Z,4.37
2018-06-29T23:06:09.072Z,3.97
2018-06-29T23:08:37.990Z,3.73
2018-06-29T23:11:06.763Z,3.93
2018-06-29T23:13:35.035Z,4.07
2018-06-29T23:16:03.331Z,4.27
2018-06-29T23:18:31.612Z,4.10
2018-06-29T23:21:00.176Z,4.37
2018-06-29T23:23:29.168Z,4.63
2018-06-29T23:25:57.440Z,4.13
2018-06-29T23:28:25.875Z,4.50
2018-06-29T23:30:54.160Z,4.73
2018-06-29T23:33:22.705Z,4.20
2018-06-29T23:35:51.533Z,4.70
2018-06-29T23:38:19.907Z,4.23
2018-06-29T23:40:48.527Z,4.50
2018-06-29T23:43:16.924Z,4.50
2018-06-29T23:45:46.107Z,4.60
2018-06-29T23:48:15.670Z,5.50
2018-06-29T23:50:44.481Z,4.97
2018-06-29T23:53:12.902Z,4.90
2018-06-29T23:55:43.328Z,4.80
2018-06-29T23:58:11.995Z,4.93
